sensor_id;sensor_type;location;lat;lon;timestamp;pressure;altitude;pressure_sealevel;temperature;humidity
48846;BME280;34665;51.886;5.436;2023-06-04T00:02:22;102044.09;;;21.99;45.61
48846;BME280;34665;51.886;5.436;2023-06-04T00:04:48;102043.69;;;21.78;46.01
48846;BME280;34665;51.886;5.436;2023-06-04T00:07:13;102044.41;;;21.86;46.09
48846;BME280;34665;51.886;5.436;2023-06-04T00:09:39;102044.72;;;21.89;46.10
48846;BME280;34665;51.886;5.436;2023-06-04T00:12:05;102047.69;;;21.88;45.97
48846;BME280;34665;51.886;5.436;2023-06-04T00:14:31;102040.41;;;21.65;46.80
48846;BME280;34665;51.886;5.436;2023-06-04T00:16:56;102039.31;;;21.77;46.72
48846;BME280;34665;51.886;5.436;2023-06-04T00:19:22;102038.06;;;21.56;47.20
48846;BME280;34665;51.886;5.436;2023-06-04T00:21:47;102039.97;;;21.32;47.66
48846;BME280;34665;51.886;5.436;2023-06-04T00:24:12;102045.53;;;21.49;47.13
48846;BME280;34665;51.886;5.436;2023-06-04T00:26:38;102042.50;;;21.22;47.61
48846;BME280;34665;51.886;5.436;2023-06-04T00:29:04;102048.31;;;21.13;48.41
48846;BME280;34665;51.886;5.436;2023-06-04T00:31:29;102039.78;;;21.10;48.63
48846;BME280;34665;51.886;5.436;2023-06-04T00:33:54;102045.22;;;21.10;48.38
48846;BME280;34665;51.886;5.436;2023-06-04T00:36:20;102045.22;;;20.86;48.89
48846;BME280;34665;51.886;5.436;2023-06-04T00:38:46;102046.03;;;20.98;49.07
48846;BME280;34665;51.886;5.436;2023-06-04T00:41:11;102048.63;;;20.93;48.89
48846;BME280;34665;51.886;5.436;2023-06-04T00:43:37;102051.44;;;20.74;49.52
48846;BME280;34665;51.886;5.436;2023-06-04T00:46:02;102044.47;;;20.78;49.69
48846;BME280;34665;51.886;5.436;2023-06-04T00:48:28;102044.47;;;20.78;49.34
48846;BME280;34665;51.886;5.436;2023-06-04T00:50:56;102036.78;;;20.75;49.43
48846;BME280;34665;51.886;5.436;2023-06-04T00:53:21;102034.50;;;20.60;49.94
48846;BME280;34665;51.886;5.436;2023-06-04T00:55:48;102039.38;;;20.70;49.90
48846;BME280;34665;51.886;5.436;2023-06-04T00:58:13;102036.53;;;20.65;49.96
48846;BME280;34665;51.886;5.436;2023-06-04T01:00:41;102042.69;;;20.72;49.62
48846;BME280;34665;51.886;5.436;2023-06-04T01:03:10;102041.59;;;20.61;49.73
48846;BME280;34665;51.886;5.436;2023-06-04T01:05:57;102036.53;;;20.53;50.04
48846;BME280;34665;51.886;5.436;2023-06-04T01:08:25;102040.53;;;20.51;50.07
48846;BME280;34665;51.886;5.436;2023-06-04T01:10:52;102046.22;;;20.49;50.13
48846;BME280;34665;51.886;5.436;2023-06-04T01:13:18;102047.59;;;20.52;49.81
48846;BME280;34665;51.886;5.436;2023-06-04T01:15:44;102036.84;;;20.33;50.24
48846;BME280;34665;51.886;5.436;2023-06-04T01:18:09;102039.34;;;20.46;49.77
48846;BME280;34665;51.886;5.436;2023-06-04T01:20:40;102030.69;;;20.38;49.99
48846;BME280;34665;51.886;5.436;2023-06-04T01:26:00;102040.59;;;20.20;50.36
48846;BME280;34665;51.886;5.436;2023-06-04T01:28:28;102041.34;;;20.09;50.77
48846;BME280;34665;51.886;5.436;2023-06-04T01:30:55;102037.81;;;20.08;50.67
48846;BME280;34665;51.886;5.436;2023-06-04T01:33:21;102045.38;;;20.18;50.34
48846;BME280;34665;51.886;5.436;2023-06-04T01:35:47;102042.75;;;20.30;49.85
48846;BME280;34665;51.886;5.436;2023-06-04T01:38:13;102039.75;;;20.19;49.85
48846;BME280;34665;51.886;5.436;2023-06-04T01:40:38;102034.91;;;20.22;49.83
48846;BME280;34665;51.886;5.436;2023-06-04T01:43:04;102037.63;;;20.22;49.78
48846;BME280;34665;51.886;5.436;2023-06-04T01:45:30;102044.78;;;20.16;50.38
48846;BME280;34665;51.886;5.436;2023-06-04T01:47:55;102039.31;;;20.04;50.39
48846;BME280;34665;51.886;5.436;2023-06-04T01:50:22;102030.50;;;20.09;50.31
48846;BME280;34665;51.886;5.436;2023-06-04T01:52:48;102029.38;;;19.98;50.33
48846;BME280;34665;51.886;5.436;2023-06-04T01:55:14;102034.94;;;20.03;50.32
48846;BME280;34665;51.886;5.436;2023-06-04T01:57:41;102030.66;;;19.95;50.37
48846;BME280;34665;51.886;5.436;2023-06-04T02:00:07;102033.75;;;19.99;50.32
48846;BME280;34665;51.886;5.436;2023-06-04T02:02:42;102034.00;;;19.97;50.45
48846;BME280;34665;51.886;5.436;2023-06-04T02:05:08;102035.28;;;19.76;51.02
48846;BME280;34665;51.886;5.436;2023-06-04T02:07:34;102044.47;;;19.75;51.03
48846;BME280;34665;51.886;5.436;2023-06-04T02:10:00;102032.69;;;19.81;50.76
48846;BME280;34665;51.886;5.436;2023-06-04T02:12:25;102039.38;;;19.48;51.95
48846;BME280;34665;51.886;5.436;2023-06-04T02:14:51;102042.00;;;19.55;51.80
48846;BME280;34665;51.886;5.436;2023-06-04T02:17:17;102041.63;;;19.70;51.49
48846;BME280;34665;51.886;5.436;2023-06-04T02:19:43;102048.84;;;19.76;51.14
48846;BME280;34665;51.886;5.436;2023-06-04T02:22:13;102037.13;;;19.63;51.78
48846;BME280;34665;51.886;5.436;2023-06-04T02:24:39;102036.34;;;19.56;51.77
48846;BME280;34665;51.886;5.436;2023-06-04T02:27:07;102034.78;;;19.30;52.70
48846;BME280;34665;51.886;5.436;2023-06-04T02:29:33;102036.59;;;19.55;52.52
48846;BME280;34665;51.886;5.436;2023-06-04T02:31:58;102042.69;;;19.50;52.79
48846;BME280;34665;51.886;5.436;2023-06-04T02:34:24;102043.59;;;19.44;53.54
48846;BME280;34665;51.886;5.436;2023-06-04T02:36:50;102042.09;;;19.48;53.33
48846;BME280;34665;51.886;5.436;2023-06-04T02:39:16;102041.56;;;19.58;53.00
48846;BME280;34665;51.886;5.436;2023-06-04T02:41:42;102039.59;;;19.65;52.55
48846;BME280;34665;51.886;5.436;2023-06-04T02:44:07;102045.25;;;19.63;52.63
48846;BME280;34665;51.886;5.436;2023-06-04T02:46:33;102041.25;;;19.66;52.60
48846;BME280;34665;51.886;5.436;2023-06-04T02:48:58;102047.97;;;19.63;52.69
48846;BME280;34665;51.886;5.436;2023-06-04T02:51:24;102047.97;;;19.63;52.61
48846;BME280;34665;51.886;5.436;2023-06-04T02:53:50;102041.25;;;19.66;52.61
48846;BME280;34665;51.886;5.436;2023-06-04T02:56:15;102042.97;;;19.60;52.72
48846;BME280;34665;51.886;5.436;2023-06-04T02:58:51;102036.34;;;19.56;52.76
48846;BME280;34665;51.886;5.436;2023-06-04T03:01:17;102034.41;;;19.45;53.09
48846;BME280;34665;51.886;5.436;2023-06-04T03:03:43;102030.63;;;19.46;52.99
48846;BME280;34665;51.886;5.436;2023-06-04T03:06:10;102038.16;;;19.25;53.46
48846;BME280;34665;51.886;5.436;2023-06-04T03:08:36;102038.78;;;19.46;53.31
48846;BME280;34665;51.886;5.436;2023-06-04T03:11:01;102038.69;;;19.53;52.84
48846;BME280;34665;51.886;5.436;2023-06-04T03:13:27;102045.47;;;19.43;53.21
48846;BME280;34665;51.886;5.436;2023-06-04T03:15:53;102037.53;;;19.60;52.37
48846;BME280;34665;51.886;5.436;2023-06-04T03:18:21;102043.94;;;19.66;52.18
48846;BME280;34665;51.886;5.436;2023-06-04T03:20:47;102037.19;;;19.38;52.92
48846;BME280;34665;51.886;5.436;2023-06-04T03:23:13;102034.06;;;19.34;53.14
48846;BME280;34665;51.886;5.436;2023-06-04T03:25:39;102032.59;;;19.20;53.43
48846;BME280;34665;51.886;5.436;2023-06-04T03:28:04;102033.63;;;19.19;53.91
48846;BME280;34665;51.886;5.436;2023-06-04T03:30:31;102034.31;;;19.33;53.28
48846;BME280;34665;51.886;5.436;2023-06-04T03:32:59;102031.81;;;19.13;53.92
48846;BME280;34665;51.886;5.436;2023-06-04T03:35:25;102031.75;;;19.19;54.00
48846;BME280;34665;51.886;5.436;2023-06-04T03:37:50;102034.25;;;19.21;53.71
48846;BME280;34665;51.886;5.436;2023-06-04T03:40:16;102037.56;;;19.23;53.82
48846;BME280;34665;51.886;5.436;2023-06-04T03:42:43;102034.34;;;19.08;53.99
48846;BME280;34665;51.886;5.436;2023-06-04T03:45:09;102039.03;;;19.00;54.59
48846;BME280;34665;51.886;5.436;2023-06-04T03:47:37;102037.22;;;19.13;54.32
48846;BME280;34665;51.886;5.436;2023-06-04T03:50:04;102035.34;;;18.88;55.00
48846;BME280;34665;51.886;5.436;2023-06-04T03:52:30;102033.22;;;18.39;56.59
48846;BME280;34665;51.886;5.436;2023-06-04T03:54:58;102037.56;;;18.72;56.17
48846;BME280;34665;51.886;5.436;2023-06-04T03:57:24;102038.13;;;18.81;55.84
48846;BME280;34665;51.886;5.436;2023-06-04T03:59:50;102035.53;;;18.68;56.31
48846;BME280;34665;51.886;5.436;2023-06-04T04:02:16;102041.34;;;18.71;56.36
48846;BME280;34665;51.886;5.436;2023-06-04T04:04:45;102045.59;;;18.60;56.65
48846;BME280;34665;51.886;5.436;2023-06-04T04:07:11;102044.41;;;18.75;56.35
48846;BME280;34665;51.886;5.436;2023-06-04T04:09:37;102044.84;;;18.46;57.50
48846;BME280;34665;51.886;5.436;2023-06-04T04:12:03;102050.94;;;18.67;57.25
48846;BME280;34665;51.886;5.436;2023-06-04T04:14:29;102053.47;;;18.62;57.24
48846;BME280;34665;51.886;5.436;2023-06-04T04:16:55;102055.50;;;18.73;56.93
48846;BME280;34665;51.886;5.436;2023-06-04T04:19:21;102053.16;;;18.77;56.84
48846;BME280;34665;51.886;5.436;2023-06-04T04:21:47;102054.00;;;18.77;56.95
48846;BME280;34665;51.886;5.436;2023-06-04T04:24:25;102058.25;;;18.92;56.72
48846;BME280;34665;51.886;5.436;2023-06-04T04:26:54;102057.22;;;18.93;56.46
48846;BME280;34665;51.886;5.436;2023-06-04T04:29:20;102058.19;;;18.73;57.32
48846;BME280;34665;51.886;5.436;2023-06-04T04:31:49;102046.06;;;18.51;57.86
48846;BME280;34665;51.886;5.436;2023-06-04T04:34:14;102050.00;;;18.55;58.27
48846;BME280;34665;51.886;5.436;2023-06-04T04:36:41;102060.63;;;18.82;57.68
48846;BME280;34665;51.886;5.436;2023-06-04T04:39:08;102043.66;;;18.68;58.42
48846;BME280;34665;51.886;5.436;2023-06-04T04:41:34;102058.97;;;18.81;58.17
48846;BME280;34665;51.886;5.436;2023-06-04T04:44:04;102059.56;;;18.83;57.91
48846;BME280;34665;51.886;5.436;2023-06-04T04:46:31;102055.75;;;18.90;57.78
48846;BME280;34665;51.886;5.436;2023-06-04T04:48:57;102059.06;;;18.99;57.46
48846;BME280;34665;51.886;5.436;2023-06-04T04:51:22;102056.53;;;18.98;57.72
48846;BME280;34665;51.886;5.436;2023-06-04T04:53:48;102053.69;;;18.86;58.07
48846;BME280;34665;51.886;5.436;2023-06-04T04:56:14;102050.38;;;18.84;58.17
48846;BME280;34665;51.886;5.436;2023-06-04T04:58:44;102050.94;;;18.92;58.23
48846;BME280;34665;51.886;5.436;2023-06-04T05:01:10;102038.56;;;19.03;57.68
48846;BME280;34665;51.886;5.436;2023-06-04T05:03:37;102048.38;;;19.04;57.57
48846;BME280;34665;51.886;5.436;2023-06-04T05:06:02;102048.47;;;19.16;57.34
48846;BME280;34665;51.886;5.436;2023-06-04T05:08:28;102047.72;;;19.09;57.54
48846;BME280;34665;51.886;5.436;2023-06-04T05:10:53;102043.34;;;19.08;57.61
48846;BME280;34665;51.886;5.436;2023-06-04T05:13:18;102052.63;;;19.19;57.52
48846;BME280;34665;51.886;5.436;2023-06-04T05:15:54;102053.94;;;19.10;57.58
48846;BME280;34665;51.886;5.436;2023-06-04T05:18:23;102045.13;;;18.89;58.45
48846;BME280;34665;51.886;5.436;2023-06-04T05:20:54;102056.16;;;19.19;57.15
48846;BME280;34665;51.886;5.436;2023-06-04T05:23:20;102056.75;;;19.22;57.19
48846;BME280;34665;51.886;5.436;2023-06-04T05:25:48;102054.91;;;19.41;56.96
48846;BME280;34665;51.886;5.436;2023-06-04T05:28:15;102053.16;;;19.46;56.94
48846;BME280;34665;51.886;5.436;2023-06-04T05:30:40;102054.38;;;19.32;56.68
48846;BME280;34665;51.886;5.436;2023-06-04T05:33:08;102054.56;;;19.30;57.37
48846;BME280;34665;51.886;5.436;2023-06-04T05:35:46;102057.59;;;19.22;58.29
48846;BME280;34665;51.886;5.436;2023-06-04T05:38:11;102054.81;;;19.47;57.95
48846;BME280;34665;51.886;5.436;2023-06-04T05:40:43;102052.34;;;19.65;57.34
48846;BME280;34665;51.886;5.436;2023-06-04T05:43:09;102059.03;;;19.62;57.40
48846;BME280;34665;51.886;5.436;2023-06-04T05:45:34;102063.47;;;19.75;57.32
48846;BME280;34665;51.886;5.436;2023-06-04T05:48:00;102059.41;;;19.66;57.30
48846;BME280;34665;51.886;5.436;2023-06-04T05:50:27;102061.66;;;19.87;56.97
48846;BME280;34665;51.886;5.436;2023-06-04T05:52:53;102063.50;;;19.94;56.55
48846;BME280;34665;51.886;5.436;2023-06-04T05:55:21;102063.31;;;19.88;56.29
48846;BME280;34665;51.886;5.436;2023-06-04T05:57:46;102070.56;;;19.95;56.43
48846;BME280;34665;51.886;5.436;2023-06-04T06:00:12;102074.78;;;19.90;56.68
48846;BME280;34665;51.886;5.436;2023-06-04T06:02:41;102068.47;;;19.97;56.86
48846;BME280;34665;51.886;5.436;2023-06-04T06:05:22;102061.47;;;20.19;56.16
48846;BME280;34665;51.886;5.436;2023-06-04T06:07:47;102063.03;;;20.27;55.76
48846;BME280;34665;51.886;5.436;2023-06-04T06:10:12;102062.56;;;20.30;55.53
48846;BME280;34665;51.886;5.436;2023-06-04T06:12:39;102071.94;;;20.16;56.54
48846;BME280;34665;51.886;5.436;2023-06-04T06:15:05;102074.91;;;20.45;55.97
48846;BME280;34665;51.886;5.436;2023-06-04T06:17:31;102076.56;;;20.46;56.37
48846;BME280;34665;51.886;5.436;2023-06-04T06:19:58;102073.94;;;20.39;55.36
48846;BME280;34665;51.886;5.436;2023-06-04T06:22:24;102070.09;;;20.59;55.58
48846;BME280;34665;51.886;5.436;2023-06-04T06:24:50;102076.34;;;20.59;55.61
48846;BME280;34665;51.886;5.436;2023-06-04T06:27:16;102064.56;;;20.77;55.60
48846;BME280;34665;51.886;5.436;2023-06-04T06:29:43;102070.28;;;20.88;55.03
48846;BME280;34665;51.886;5.436;2023-06-04T06:32:09;102071.66;;;20.78;54.64
48846;BME280;34665;51.886;5.436;2023-06-04T06:34:35;102070.06;;;20.89;54.11
48846;BME280;34665;51.886;5.436;2023-06-04T06:37:02;102077.16;;;20.90;54.44
48846;BME280;34665;51.886;5.436;2023-06-04T06:39:28;102076.56;;;21.00;54.48
48846;BME280;34665;51.886;5.436;2023-06-04T06:41:53;102073.69;;;21.19;54.45
48846;BME280;34665;51.886;5.436;2023-06-04T06:44:23;102084.00;;;21.29;53.66
48846;BME280;34665;51.886;5.436;2023-06-04T06:46:48;102084.94;;;21.11;53.92
48846;BME280;34665;51.886;5.436;2023-06-04T06:49:15;102080.94;;;21.37;52.35
48846;BME280;34665;51.886;5.436;2023-06-04T06:51:40;102085.41;;;21.31;51.60
48846;BME280;34665;51.886;5.436;2023-06-04T06:54:08;102087.78;;;21.40;51.74
48846;BME280;34665;51.886;5.436;2023-06-04T06:56:33;102091.66;;;21.56;52.50
48846;BME280;34665;51.886;5.436;2023-06-04T06:58:59;102088.94;;;21.68;51.16
48846;BME280;34665;51.886;5.436;2023-06-04T07:01:25;102095.53;;;21.84;51.32
48846;BME280;34665;51.886;5.436;2023-06-04T07:03:50;102101.47;;;21.81;51.52
48846;BME280;34665;51.886;5.436;2023-06-04T07:06:15;102096.69;;;22.00;50.67
48846;BME280;34665;51.886;5.436;2023-06-04T07:08:41;102095.69;;;21.77;51.81
48846;BME280;34665;51.886;5.436;2023-06-04T07:11:07;102095.88;;;21.87;50.96
48846;BME280;34665;51.886;5.436;2023-06-04T07:13:38;102094.50;;;22.14;49.93
48846;BME280;34665;51.886;5.436;2023-06-04T07:16:03;102101.53;;;22.27;50.03
48846;BME280;34665;51.886;5.436;2023-06-04T07:18:29;102107.78;;;22.39;49.40
48846;BME280;34665;51.886;5.436;2023-06-04T07:20:54;102108.81;;;22.09;49.17
48846;BME280;34665;51.886;5.436;2023-06-04T07:23:20;102101.81;;;22.42;49.15
48846;BME280;34665;51.886;5.436;2023-06-04T07:25:45;102098.25;;;22.42;48.29
48846;BME280;34665;51.886;5.436;2023-06-04T07:28:11;102106.78;;;22.45;49.29
48846;BME280;34665;51.886;5.436;2023-06-04T07:30:37;102099.06;;;22.54;49.66
48846;BME280;34665;51.886;5.436;2023-06-04T07:33:03;102107.25;;;22.71;47.80
48846;BME280;34665;51.886;5.436;2023-06-04T07:35:28;102103.22;;;22.74;48.39
48846;BME280;34665;51.886;5.436;2023-06-04T07:37:54;102110.97;;;22.99;47.93
48846;BME280;34665;51.886;5.436;2023-06-04T07:40:19;102102.19;;;23.14;48.22
48846;BME280;34665;51.886;5.436;2023-06-04T07:42:45;102109.00;;;23.12;47.69
48846;BME280;34665;51.886;5.436;2023-06-04T07:45:11;102114.22;;;23.30;46.76
48846;BME280;34665;51.886;5.436;2023-06-04T07:47:36;102106.41;;;23.22;47.08
48846;BME280;34665;51.886;5.436;2023-06-04T07:50:05;102110.53;;;23.42;47.17
48846;BME280;34665;51.886;5.436;2023-06-04T07:52:31;102112.59;;;23.52;46.52
48846;BME280;34665;51.886;5.436;2023-06-04T07:54:57;102113.72;;;23.56;46.13
48846;BME280;34665;51.886;5.436;2023-06-04T07:57:23;102120.47;;;23.70;45.19
48846;BME280;34665;51.886;5.436;2023-06-04T07:59:49;102112.91;;;23.77;44.21
48846;BME280;34665;51.886;5.436;2023-06-04T08:02:14;102115.84;;;23.93;44.65
48846;BME280;34665;51.886;5.436;2023-06-04T08:04:40;102115.56;;;23.95;44.55
48846;BME280;34665;51.886;5.436;2023-06-04T08:07:06;102113.63;;;24.12;44.39
48846;BME280;34665;51.886;5.436;2023-06-04T08:09:31;102114.00;;;24.21;43.86
48846;BME280;34665;51.886;5.436;2023-06-04T08:11:56;102120.19;;;24.39;43.64
48846;BME280;34665;51.886;5.436;2023-06-04T08:14:22;102122.19;;;24.48;43.04
48846;BME280;34665;51.886;5.436;2023-06-04T08:16:50;102127.19;;;24.57;42.75
48846;BME280;34665;51.886;5.436;2023-06-04T08:19:15;102126.19;;;24.36;42.08
48846;BME280;34665;51.886;5.436;2023-06-04T08:21:41;102127.91;;;24.74;42.22
48846;BME280;34665;51.886;5.436;2023-06-04T08:24:08;102134.81;;;24.55;42.44
48846;BME280;34665;51.886;5.436;2023-06-04T08:26:33;102132.91;;;24.55;42.66
48846;BME280;34665;51.886;5.436;2023-06-04T08:29:02;102122.31;;;24.64;42.90
48846;BME280;34665;51.886;5.436;2023-06-04T08:31:28;102118.16;;;24.84;42.00
48846;BME280;34665;51.886;5.436;2023-06-04T08:33:53;102117.91;;;24.85;41.07
48846;BME280;34665;51.886;5.436;2023-06-04T08:36:18;102130.31;;;24.98;41.18
48846;BME280;34665;51.886;5.436;2023-06-04T08:38:44;102125.78;;;24.82;41.62
48846;BME280;34665;51.886;5.436;2023-06-04T08:41:15;102127.41;;;25.15;41.77
48846;BME280;34665;51.886;5.436;2023-06-04T08:43:41;102131.91;;;25.37;40.14
48846;BME280;34665;51.886;5.436;2023-06-04T08:46:09;102123.53;;;25.49;40.26
48846;BME280;34665;51.886;5.436;2023-06-04T08:48:34;102135.28;;;25.06;40.13
48846;BME280;34665;51.886;5.436;2023-06-04T08:51:01;102125.44;;;25.48;40.02
48846;BME280;34665;51.886;5.436;2023-06-04T08:53:29;102128.59;;;25.78;39.24
48846;BME280;34665;51.886;5.436;2023-06-04T08:55:55;102141.75;;;25.81;38.46
48846;BME280;34665;51.886;5.436;2023-06-04T08:58:21;102140.72;;;26.03;37.90
48846;BME280;34665;51.886;5.436;2023-06-04T09:00:47;102140.56;;;26.20;37.12
48846;BME280;34665;51.886;5.436;2023-06-04T09:03:13;102138.63;;;26.26;37.52
48846;BME280;34665;51.886;5.436;2023-06-04T09:05:40;102131.53;;;26.35;37.31
48846;BME280;34665;51.886;5.436;2023-06-04T09:08:07;102130.44;;;26.31;37.84
48846;BME280;34665;51.886;5.436;2023-06-04T09:10:33;102143.06;;;26.42;37.22
48846;BME280;34665;51.886;5.436;2023-06-04T09:13:01;102140.81;;;26.29;36.50
48846;BME280;34665;51.886;5.436;2023-06-04T09:15:28;102141.16;;;26.63;36.40
48846;BME280;34665;51.886;5.436;2023-06-04T09:17:53;102140.38;;;26.99;36.02
48846;BME280;34665;51.886;5.436;2023-06-04T09:20:19;102148.03;;;26.76;35.58
48846;BME280;34665;51.886;5.436;2023-06-04T09:22:45;102143.91;;;26.84;35.46
48846;BME280;34665;51.886;5.436;2023-06-04T09:25:18;102145.28;;;27.23;34.68
48846;BME280;34665;51.886;5.436;2023-06-04T09:27:44;102139.72;;;27.44;34.82
48846;BME280;34665;51.886;5.436;2023-06-04T09:30:10;102139.44;;;27.45;34.08
48846;BME280;34665;51.886;5.436;2023-06-04T09:32:36;102148.25;;;27.58;33.92
48846;BME280;34665;51.886;5.436;2023-06-04T09:35:09;102141.22;;;27.97;33.08
48846;BME280;34665;51.886;5.436;2023-06-04T09:37:35;102154.03;;;28.62;32.29
48846;BME280;34665;51.886;5.436;2023-06-04T09:40:01;102145.41;;;29.09;31.76
48846;BME280;34665;51.886;5.436;2023-06-04T09:42:27;102143.75;;;29.61;31.55
48846;BME280;34665;51.886;5.436;2023-06-04T09:44:53;102152.66;;;30.02;30.59
48846;BME280;34665;51.886;5.436;2023-06-04T09:47:19;102152.69;;;30.73;30.09
48846;BME280;34665;51.886;5.436;2023-06-04T09:49:45;102171.75;;;31.36;29.39
48846;BME280;34665;51.886;5.436;2023-06-04T09:52:11;102151.88;;;31.76;29.35
48846;BME280;34665;51.886;5.436;2023-06-04T09:54:38;102153.50;;;31.91;29.59
48846;BME280;34665;51.886;5.436;2023-06-04T09:57:04;102158.53;;;32.26;28.73
48846;BME280;34665;51.886;5.436;2023-06-04T09:59:31;102161.09;;;33.04;27.64
48846;BME280;34665;51.886;5.436;2023-06-04T10:02:01;102160.25;;;33.36;26.30
48846;BME280;34665;51.886;5.436;2023-06-04T10:04:29;102160.13;;;33.99;23.97
48846;BME280;34665;51.886;5.436;2023-06-04T10:06:55;102158.31;;;34.56;25.30
48846;BME280;34665;51.886;5.436;2023-06-04T10:09:21;102156.72;;;35.11;23.61
48846;BME280;34665;51.886;5.436;2023-06-04T10:11:53;102156.84;;;35.84;22.95
48846;BME280;34665;51.886;5.436;2023-06-04T10:14:37;102165.34;;;36.09;22.60
48846;BME280;34665;51.886;5.436;2023-06-04T10:17:06;102157.69;;;36.27;22.63
48846;BME280;34665;51.886;5.436;2023-06-04T10:19:33;102160.88;;;36.71;21.73
48846;BME280;34665;51.886;5.436;2023-06-04T10:22:00;102156.25;;;36.88;21.94
48846;BME280;34665;51.886;5.436;2023-06-04T10:24:26;102166.66;;;36.66;21.92
48846;BME280;34665;51.886;5.436;2023-06-04T10:26:51;102160.59;;;36.52;22.69
48846;BME280;34665;51.886;5.436;2023-06-04T10:29:18;102162.25;;;36.65;22.06
48846;BME280;34665;51.886;5.436;2023-06-04T10:31:45;102162.47;;;37.19;21.07
48846;BME280;34665;51.886;5.436;2023-06-04T10:34:10;102162.91;;;37.70;20.96
48846;BME280;34665;51.886;5.436;2023-06-04T10:36:43;102167.28;;;38.37;20.38
48846;BME280;34665;51.886;5.436;2023-06-04T10:39:10;102163.78;;;38.85;19.74
48846;BME280;34665;51.886;5.436;2023-06-04T10:41:35;102167.38;;;38.85;19.99
48846;BME280;34665;51.886;5.436;2023-06-04T10:44:01;102168.09;;;38.82;19.75
48846;BME280;34665;51.886;5.436;2023-06-04T10:46:36;102160.53;;;38.67;19.93
48846;BME280;34665;51.886;5.436;2023-06-04T10:49:01;102170.88;;;38.38;20.24
48846;BME280;34665;51.886;5.436;2023-06-04T10:51:30;102156.75;;;39.23;19.27
48846;BME280;34665;51.886;5.436;2023-06-04T10:53:57;102158.41;;;39.60;18.93
48846;BME280;34665;51.886;5.436;2023-06-04T10:56:33;102155.13;;;39.74;19.25
48846;BME280;34665;51.886;5.436;2023-06-04T10:58:59;102157.22;;;39.97;18.91
48846;BME280;34665;51.886;5.436;2023-06-04T11:01:28;102150.41;;;39.78;19.38
48846;BME280;34665;51.886;5.436;2023-06-04T11:03:54;102161.66;;;39.98;18.88
48846;BME280;34665;51.886;5.436;2023-06-04T11:06:19;102160.94;;;40.24;18.36
48846;BME280;34665;51.886;5.436;2023-06-04T11:08:46;102164.22;;;40.69;17.67
48846;BME280;34665;51.886;5.436;2023-06-04T11:11:12;102160.19;;;40.90;18.16
48846;BME280;34665;51.886;5.436;2023-06-04T11:13:38;102160.56;;;40.65;18.05
48846;BME280;34665;51.886;5.436;2023-06-04T11:16:14;102156.75;;;41.00;18.25
48846;BME280;34665;51.886;5.436;2023-06-04T11:18:39;102160.13;;;41.10;17.30
48846;BME280;34665;51.886;5.436;2023-06-04T11:21:05;102155.19;;;41.53;16.84
48846;BME280;34665;51.886;5.436;2023-06-04T11:23:32;102157.97;;;41.80;16.42
48846;BME280;34665;51.886;5.436;2023-06-04T11:25:58;102160.59;;;42.34;16.13
48846;BME280;34665;51.886;5.436;2023-06-04T11:28:24;102160.66;;;42.41;16.20
48846;BME280;34665;51.886;5.436;2023-06-04T11:30:59;102160.03;;;43.01;15.64
48846;BME280;34665;51.886;5.436;2023-06-04T11:33:28;102153.81;;;43.33;15.94
48846;BME280;34665;51.886;5.436;2023-06-04T11:35:54;102152.13;;;43.21;16.42
48846;BME280;34665;51.886;5.436;2023-06-04T11:38:19;102147.50;;;43.50;15.60
48846;BME280;34665;51.886;5.436;2023-06-04T11:40:54;102147.34;;;43.28;16.12
48846;BME280;34665;51.886;5.436;2023-06-04T11:43:19;102147.25;;;43.74;15.81
48846;BME280;34665;51.886;5.436;2023-06-04T11:45:45;102145.69;;;43.91;15.27
48846;BME280;34665;51.886;5.436;2023-06-04T11:48:10;102141.53;;;43.63;15.68
48846;BME280;34665;51.886;5.436;2023-06-04T11:50:35;102145.47;;;44.65;15.37
48846;BME280;34665;51.886;5.436;2023-06-04T11:53:02;102135.78;;;44.69;15.76
48846;BME280;34665;51.886;5.436;2023-06-04T11:55:28;102134.56;;;44.78;14.55
48846;BME280;34665;51.886;5.436;2023-06-04T11:57:53;102135.75;;;44.80;15.03
48846;BME280;34665;51.886;5.436;2023-06-04T12:00:19;102127.72;;;44.75;15.73
48846;BME280;34665;51.886;5.436;2023-06-04T12:02:54;102124.50;;;44.99;15.44
48846;BME280;34665;51.886;5.436;2023-06-04T12:05:21;102129.13;;;45.67;15.44
48846;BME280;34665;51.886;5.436;2023-06-04T12:07:48;102125.34;;;46.03;14.21
48846;BME280;34665;51.886;5.436;2023-06-04T12:10:17;102127.63;;;46.22;14.70
48846;BME280;34665;51.886;5.436;2023-06-04T12:12:42;102125.25;;;46.21;14.33
48846;BME280;34665;51.886;5.436;2023-06-04T12:15:08;102127.16;;;46.35;13.84
48846;BME280;34665;51.886;5.436;2023-06-04T12:17:35;102122.00;;;46.75;14.22
48846;BME280;34665;51.886;5.436;2023-06-04T12:20:01;102126.94;;;47.06;14.06
48846;BME280;34665;51.886;5.436;2023-06-04T12:22:27;102122.34;;;46.28;14.27
48846;BME280;34665;51.886;5.436;2023-06-04T12:24:55;102120.16;;;46.54;14.48
48846;BME280;34665;51.886;5.436;2023-06-04T12:27:25;102126.25;;;46.52;14.00
48846;BME280;34665;51.886;5.436;2023-06-04T12:29:54;102122.78;;;46.76;14.09
48846;BME280;34665;51.886;5.436;2023-06-04T12:32:20;102128.25;;;46.98;13.91
48846;BME280;34665;51.886;5.436;2023-06-04T12:34:46;102122.47;;;46.66;14.22
48846;BME280;34665;51.886;5.436;2023-06-04T12:37:13;102115.78;;;46.91;13.93
48846;BME280;34665;51.886;5.436;2023-06-04T12:39:39;102112.09;;;46.52;14.90
48846;BME280;34665;51.886;5.436;2023-06-04T12:42:05;102116.94;;;46.98;13.78
48846;BME280;34665;51.886;5.436;2023-06-04T12:44:32;102121.09;;;47.24;13.83
48846;BME280;34665;51.886;5.436;2023-06-04T12:46:57;102110.50;;;46.44;14.70
48846;BME280;34665;51.886;5.436;2023-06-04T12:49:23;102119.16;;;47.14;14.29
48846;BME280;34665;51.886;5.436;2023-06-04T12:51:48;102112.97;;;46.91;14.12